Time;durP1;ratioP1;P1;durP2;ratioP2;P2;SDS_P1;SDS_P2;PMS_P1;PMS_P2;Temp;Humidity;BMP_temperature;BMP_pressure;BME280_temperature;BME280_humidity;BME280_pressure;Samples;Min_cycle;Max_cycle;Signal;HPM_P1;HPM_P2
2022/12/06 00:00:43;;;;;;;28.67;15.63;;;;;;;;;;5009814;28;20048;-85
2022/12/06 00:03:09;;;;;;;28.73;16.52;;;;;;;3.55;100.00;67170.97;5009836;28;20129;-85
2022/12/06 00:05:34;;;;;;;31.10;16.77;;;;;;;;;;5009630;28;20137;-85
2022/12/06 00:07:59;;;;;;;29.33;16.98;;;;;;;;;;5006046;28;20125;-85
2022/12/06 00:10:25;;;;;;;30.88;13.18;;;;;;;3.57;100.00;67167.97;5009919;28;20049;-85
2022/12/06 00:12:51;;;;;;;28.98;15.73;;;;;;;3.56;100.00;67172.66;5005282;28;20045;-85
2022/12/06 00:15:16;;;;;;;30.60;16.73;;;;;;;;;;5009804;28;20042;-85
2022/12/06 00:17:41;;;;;;;29.33;16.48;;;;;;;3.56;100.00;67166.81;4999960;28;20112;-85
2022/12/06 00:20:07;;;;;;;27.92;15.88;;;;;;;3.54;100.00;67165.16;5005570;28;20128;-85
2022/12/06 00:22:33;;;;;;;27.50;16.30;;;;;;;3.55;100.00;67165.69;5018049;28;20040;-85
2022/12/06 00:24:58;;;;;;;27.13;15.57;;;;;;;;;;5007770;28;20137;-85
2022/12/06 00:27:23;;;;;;;28.30;16.55;;;;;;;3.55;100.00;67165.69;5004417;28;20046;-85
2022/12/06 00:29:48;;;;;;;27.25;16.85;;;;;;;;;;5001353;28;20042;-86
2022/12/06 00:32:14;;;;;;;33.17;16.42;;;;;;;3.58;100.00;67174.34;5008496;28;20545;-86
2022/12/06 00:34:39;;;;;;;27.65;14.23;;;;;;;3.57;100.00;67173.78;5004322;28;20735;-84
2022/12/06 00:37:04;;;;;;;31.65;17.25;;;;;;;3.58;100.00;67174.91;5001413;28;20030;-86
2022/12/06 00:39:30;;;;;;;31.15;15.75;;;;;;;3.58;100.00;67174.34;4997261;28;20088;-85
2022/12/06 00:41:55;;;;;;;33.45;16.05;;;;;;;3.59;100.00;67178.09;5008032;28;20042;-86
2022/12/06 00:44:21;;;;;;;31.42;16.55;;;;;;;3.59;100.00;67176.03;5004685;28;20159;-86
2022/12/06 00:46:46;;;;;;;31.20;15.48;;;;;;;;;;4999191;28;20446;-85
2022/12/06 00:49:11;;;;;;;32.17;18.38;;;;;;;;;;5005145;28;20048;-86
2022/12/06 00:51:37;;;;;;;33.50;18.10;;;;;;;3.58;100.00;67174.34;5000089;28;20099;-86
2022/12/06 00:54:04;;;;;;;34.00;17.77;;;;;;;3.58;100.00;67169.09;5003587;28;20451;-86
2022/12/06 00:56:30;;;;;;;31.50;18.15;;;;;;;3.59;100.00;67180.72;4996490;28;20038;-86
2022/12/06 00:58:55;;;;;;;36.50;19.25;;;;;;;;;;5009200;28;20398;-86
2022/12/06 01:01:26;;;;;;;34.22;17.98;;;;;;;3.58;100.00;67177.53;5006887;28;20041;-85
2022/12/06 01:03:52;;;;;;;34.35;17.45;;;;;;;;;;5007769;28;20057;-85
2022/12/06 01:06:21;;;;;;;31.23;17.33;;;;;;;3.60;100.00;67176.59;5005362;28;20405;-86
2022/12/06 01:08:47;;;;;;;31.80;19.65;;;;;;;;;;5008749;28;20038;-84
2022/12/06 01:11:14;;;;;;;32.30;17.88;;;;;;;3.57;100.00;67173.78;5006343;28;20099;-84
2022/12/06 01:13:39;;;;;;;33.35;18.42;;;;;;;;;;4999997;28;20429;-85
2022/12/06 01:16:12;;;;;;;32.05;17.90;;;;;;;;;;5005629;28;20157;-85
2022/12/06 01:18:39;;;;;;;32.55;18.55;;;;;;;3.59;100.00;67175.47;5008058;28;20034;-85
2022/12/06 01:21:05;;;;;;;31.48;17.67;;;;;;;;;;5003029;28;20050;-85
2022/12/06 01:23:30;;;;;;;33.67;17.92;;;;;;;3.58;100.00;67174.34;5004757;28;20639;-85
2022/12/06 01:25:56;;;;;;;30.55;17.38;;;;;;;;;;5005592;28;20080;-85
2022/12/06 01:28:21;;;;;;;31.10;16.63;;;;;;;3.60;100.00;67171.34;5007850;28;20042;-85
2022/12/06 01:30:46;;;;;;;35.72;19.38;;;;;;;;;;5007941;28;20054;-83
2022/12/06 01:33:11;;;;;;;36.42;17.45;;;;;;;;;;5018412;28;20046;-85
2022/12/06 01:35:40;;;;;;;37.00;18.80;;;;;;;;;;5008808;28;20034;-85
2022/12/06 01:38:06;;;;;;;37.60;18.98;;;;;;;3.61;100.00;67178.28;5011584;28;20053;-83
2022/12/06 01:40:46;;;;;;;32.88;17.27;;;;;;;3.62;100.00;67178.84;5032290;28;20037;-83
2022/12/06 01:43:36;;;;;;;35.17;19.67;;;;;;;3.60;100.00;67179.81;5028636;28;20053;-83
2022/12/06 01:46:40;;;;;;;32.50;16.17;;;;;;;3.62;100.00;67173.59;5029405;28;20038;-83
2022/12/06 01:49:11;;;;;;;38.97;19.98;;;;;;;3.61;100.00;67167.75;5022612;28;20076;-83
2022/12/06 01:51:39;;;;;;;38.83;20.42;;;;;;;3.62;100.00;67173.59;5025786;28;20101;-84
2022/12/06 01:54:06;;;;;;;38.80;19.50;;;;;;;;;;5026905;28;20030;-84
2022/12/06 01:56:32;;;;;;;41.63;20.33;;;;;;;;;;5029063;28;20060;-83
2022/12/06 01:58:58;;;;;;;39.00;19.75;;;;;;;3.60;100.00;67177.16;5031098;28;20042;-83
2022/12/06 02:01:24;;;;;;;44.17;20.92;;;;;;;;;;5019084;28;20080;-84
2022/12/06 02:03:50;;;;;;;38.35;19.88;;;;;;;;;;5009909;28;20106;-86
2022/12/06 02:06:16;;;;;;;39.55;19.85;;;;;;;;;;5027977;28;20050;-82
2022/12/06 02:08:42;;;;;;;43.00;19.85;;;;;;;;;;5028841;28;20068;-83
2022/12/06 02:11:08;;;;;;;46.00;21.08;;;;;;;3.67;100.00;67179.22;5024993;28;20050;-83
2022/12/06 02:13:34;;;;;;;40.70;21.25;;;;;;;3.66;100.00;67178.13;5029784;28;20053;-83
2022/12/06 02:16:22;;;;;;;44.00;18.35;;;;;;;3.66;100.00;67183.38;5030592;28;20050;-83
2022/12/06 02:18:54;;;;;;;35.42;19.27;;;;;;;3.65;100.00;67176.41;5032394;28;20226;-82
2022/12/06 02:21:45;;;;;;;38.58;19.05;;;;;;;3.65;100.00;67176.97;5031226;28;20072;-83
2022/12/06 02:24:19;;;;;;;39.33;19.55;;;;;;;3.64;100.00;67175.84;5020852;28;20105;-83
2022/12/06 02:26:49;;;;;;;37.50;19.30;;;;;;;;;;5030080;28;20030;-83
2022/12/06 02:29:23;;;;;;;;;;;;;;;3.66;100.00;67177.56;5028704;28;20098;-83
2022/12/06 02:31:53;;;;;;;40.45;20.80;;;;;;;3.54;100.00;67170.41;5028170;28;19940;-83
2022/12/06 02:34:21;;;;;;;42.40;17.52;;;;;;;3.58;100.00;67169.09;5028806;28;20065;-83
2022/12/06 02:36:59;;;;;;;40.80;20.90;;;;;;;3.61;100.00;67180.91;5031133;28;20042;-83
2022/12/06 02:39:33;;;;;;;48.22;20.55;;;;;;;3.61;100.00;67177.72;5020337;28;20054;-83
2022/12/06 02:42:04;;;;;;;52.03;22.27;;;;;;;;;;5031135;28;20038;-83
2022/12/06 02:44:34;;;;;;;46.47;22.65;;;;;;;;;;5024481;28;20105;-84
2022/12/06 02:47:00;;;;;;;47.20;21.80;;;;;;;3.64;100.00;67175.28;5028900;28;20150;-84
2022/12/06 02:49:27;;;;;;;50.20;21.30;;;;;;;;;;5025110;28;20026;-83
2022/12/06 02:51:53;;;;;;;45.72;22.75;;;;;;;3.65;100.00;67176.97;5030422;28;20045;-83
2022/12/06 02:54:20;;;;;;;55.97;24.02;;;;;;;;;;5029399;28;20057;-85
2022/12/06 02:56:45;;;;;;;48.65;23.05;;;;;;;3.66;100.00;67177.56;5010560;28;20056;-85
2022/12/06 02:59:10;;;;;;;51.00;21.60;;;;;;;;;;5002486;28;20050;-85
2022/12/06 03:01:38;;;;;;;47.03;21.60;;;;;;;;;;5002471;28;20600;-85
2022/12/06 03:04:30;;;;;;;46.25;20.85;;;;;;;;;;5005516;28;20069;-82
2022/12/06 03:07:29;;;;;;;43.75;18.55;;;;;;;3.69;100.00;67186.75;5003113;28;20121;-86
2022/12/06 03:09:54;;;;;;;;;;;;;;;;;;5003828;28;20080;-85
2022/12/06 03:12:19;;;;;;;50.47;20.97;;;;;;;;;;5007049;28;19956;-85
2022/12/06 03:15:13;;;;;;;41.00;16.07;;;;;;;;;;4996957;28;20315;-85
2022/12/06 03:18:18;;;;;;;50.83;21.65;;;;;;;3.65;100.00;67184.31;4993512;28;20285;-85
2022/12/06 03:20:46;;;;;;;48.28;20.27;;;;;;;;;;4916610;28;20050;-86
2022/12/06 03:23:31;;;;;;;46.22;21.15;;;;;;;3.68;100.00;67179.78;4993428;28;20038;-85
2022/12/06 03:25:58;;;;;;;42.15;19.33;;;;;;;;;;5006856;28;20108;-86
2022/12/06 03:28:25;;;;;;;41.13;19.90;;;;;;;3.71;100.00;67183.75;4997355;28;20055;-86
2022/12/06 03:30:56;;;;;;;40.17;18.85;;;;;;;3.72;100.00;67190.16;4991174;28;20065;-86
2022/12/06 03:33:25;;;;;;;45.65;18.88;;;;;;;3.74;100.00;67191.81;4991344;28;20502;-86
2022/12/06 03:35:53;;;;;;;39.70;18.80;;;;;;;3.76;100.00;67194.66;4991232;28;20099;-86
2022/12/06 03:38:24;;;;;;;43.80;19.52;;;;;;;3.76;100.00;67194.66;4993371;28;20046;-85
2022/12/06 03:40:51;;;;;;;37.47;18.70;;;;;;;;;;5009490;28;20108;-84
2022/12/06 03:43:17;;;;;;;43.15;19.75;;;;;;;3.79;100.00;67192.75;4999559;28;20033;-86
2022/12/06 03:45:51;;;;;;;40.55;17.17;;;;;;;;;;5003604;28;20069;-86
2022/12/06 03:48:30;;;;;;;40.53;18.58;;;;;;;3.79;100.00;67198.03;5000775;28;20139;-85
2022/12/06 03:51:04;;;;;;;46.88;20.75;;;;;;;3.78;100.00;67189.00;4996426;28;20048;-84
2022/12/06 03:53:29;;;;;;;43.47;18.80;;;;;;;3.79;100.00;67190.13;5008681;28;20449;-85
2022/12/06 03:55:54;;;;;;;44.33;20.10;;;;;;;3.81;100.00;67195.03;5005450;28;20041;-85
2022/12/06 03:58:20;;;;;;;42.42;19.65;;;;;;;3.82;100.00;67196.16;5004389;28;20034;-87
2022/12/06 04:00:45;;;;;;;41.67;20.00;;;;;;;3.82;100.00;67201.41;5010326;28;20038;-84
2022/12/06 04:03:10;;;;;;;40.35;17.67;;;;;;;;;;5008931;28;21110;-86
2022/12/06 04:05:36;;;;;;;45.13;19.05;;;;;;;;;;5007795;28;20140;-86
2022/12/06 04:08:01;;;;;;;41.97;17.88;;;;;;;;;;5007920;28;20640;-86
2022/12/06 04:10:26;;;;;;;44.72;18.73;;;;;;;3.85;100.00;67204.22;5008024;28;20038;-84
2022/12/06 04:13:01;;;;;;;42.42;19.10;;;;;;;3.87;100.00;67200.66;5010602;28;20429;-87
2022/12/06 04:15:31;;;;;;;43.92;19.67;;;;;;;;;;4996502;28;20048;-86
2022/12/06 04:18:10;;;;;;;46.08;21.17;;;;;;;3.86;100.00;67200.13;4990862;28;20070;-85
2022/12/06 04:23:46;;;;;;;42.78;19.08;;;;;;;;;;4999922;28;20056;-87
2022/12/06 04:26:14;;;;;;;41.63;18.83;;;;;;;;;;5002637;28;20081;-86
2022/12/06 04:39:35;;;;;;;44.45;19.50;;;;;;;3.85;100.00;67198.97;5006892;28;20064;-86
2022/12/06 04:44:44;;;;;;;41.45;18.02;;;;;;;;;;5005693;28;20108;-85
2022/12/06 04:47:09;;;;;;;38.00;19.23;;;;;;;3.86;100.00;67200.13;5007670;28;20042;-85
2022/12/06 04:49:35;;;;;;;40.40;18.83;;;;;;;;;;5000890;28;20181;-85
2022/12/06 04:52:01;;;;;;;38.50;20.20;;;;;;;3.86;100.00;67199.56;5005538;28;20684;-85
2022/12/06 04:54:28;;;;;;;43.33;20.15;;;;;;;3.88;100.00;67207.06;5009947;28;20088;-85
2022/12/06 04:56:54;;;;;;;41.33;19.33;;;;;;;3.88;100.00;67201.78;5006042;28;20038;-84
2022/12/06 04:59:19;;;;;;;36.63;17.88;;;;;;;3.86;100.00;67205.38;5002511;28;20050;-86
2022/12/06 05:01:45;;;;;;;39.80;17.77;;;;;;;3.88;100.00;67207.06;5000272;28;20413;-85
2022/12/06 05:04:10;;;;;;;35.08;18.70;;;;;;;;;;4991844;28;20100;-85
2022/12/06 05:06:36;;;;;;;40.22;18.08;;;;;;;3.87;100.00;67205.94;4965111;28;20047;-84
2022/12/06 05:09:02;;;;;;;33.53;16.40;;;;;;;3.85;100.00;67204.22;4989604;28;20046;-84
2022/12/06 05:11:27;;;;;;;38.42;17.92;;;;;;;3.84;100.00;67203.69;5007705;28;20645;-83
2022/12/06 05:13:53;;;;;;;35.95;16.77;;;;;;;3.84;100.00;67203.69;4993593;28;20054;-84
2022/12/06 05:16:18;;;;;;;31.88;16.67;;;;;;;3.83;100.00;67197.28;4975510;28;20042;-83
2022/12/06 05:18:43;;;;;;;34.42;18.40;;;;;;;3.82;100.00;67201.41;4972185;28;20046;-84
2022/12/06 05:21:15;;;;;;;33.20;17.17;;;;;;;3.82;100.00;67201.41;4972684;28;20533;-84
2022/12/06 05:23:41;;;;;;;34.17;18.17;;;;;;;3.82;100.00;67200.84;4972205;28;20050;-84
2022/12/06 05:26:10;;;;;;;35.90;17.85;;;;;;;3.80;100.00;67199.16;4970831;28;20050;-83
2022/12/06 05:28:36;;;;;;;29.40;15.75;;;;;;;;;;4997051;28;20042;-84
2022/12/06 05:31:01;;;;;;;29.13;16.27;;;;;;;3.81;100.00;67199.72;4979652;28;20038;-85
2022/12/06 05:33:27;;;;;;;30.23;15.93;;;;;;;;;;4997181;28;20034;-84
2022/12/06 05:35:52;;;;;;;32.45;16.58;;;;;;;;;;4986546;28;20042;-84
2022/12/06 05:38:17;;;;;;;33.10;17.42;;;;;;;;;;5001804;28;20042;-84
2022/12/06 05:40:44;;;;;;;30.80;17.08;;;;;;;3.80;100.00;67193.91;5009462;28;20069;-83
2022/12/06 05:43:09;;;;;;;31.38;16.75;;;;;;;;;;5007532;28;20100;-83
2022/12/06 05:45:36;;;;;;;32.47;16.85;;;;;;;3.80;100.00;67198.63;5009211;28;20045;-83
2022/12/06 05:48:01;;;;;;;29.88;15.38;;;;;;;3.79;100.00;67192.75;5009350;28;20042;-84
2022/12/06 05:50:27;;;;;;;30.05;16.58;;;;;;;;;;4996603;28;20053;-83
2022/12/06 05:52:53;;;;;;;28.58;16.00;;;;;;;;;;5015813;28;20429;-84
2022/12/06 05:55:20;;;;;;;29.30;16.70;;;;;;;3.77;100.00;67189.94;4976430;28;20061;-83
2022/12/06 05:57:45;;;;;;;27.75;14.32;;;;;;;;;;4995119;28;20038;-83
2022/12/06 06:00:11;;;;;;;25.73;15.02;;;;;;;;;;4971244;28;20060;-83
2022/12/06 06:02:36;;;;;;;29.58;16.48;;;;;;;;;;5021982;28;20049;-83
2022/12/06 06:05:02;;;;;;;29.88;17.48;;;;;;;;;;5008770;28;20052;-83
2022/12/06 06:07:28;;;;;;;29.30;16.80;;;;;;;3.78;100.00;67188.44;5028066;28;20530;-83
2022/12/06 06:09:54;;;;;;;30.23;16.05;;;;;;;3.78;100.00;67196.91;5028400;28;20125;-84
2022/12/06 06:12:19;;;;;;;36.08;16.15;;;;;;;3.78;100.00;67196.91;5023065;28;20127;-83
2022/12/06 06:14:44;;;;;;;26.35;16.02;;;;;;;3.78;100.00;67196.91;5015549;28;20038;-84
2022/12/06 06:17:10;;;;;;;32.50;16.75;;;;;;;3.77;100.00;67189.94;5026311;28;20420;-84
2022/12/06 06:19:35;;;;;;;31.95;18.13;;;;;;;;;;5018242;28;20048;-84
2022/12/06 06:22:00;;;;;;;31.80;15.73;;;;;;;3.76;100.00;67194.09;5012670;28;20133;-83
2022/12/06 06:24:26;;;;;;;28.35;13.95;;;;;;;;;;5007140;28;20061;-84
2022/12/06 06:26:51;;;;;;;32.88;14.55;;;;;;;3.75;100.00;67193.53;5011032;28;20045;-84
2022/12/06 06:29:16;;;;;;;27.48;13.85;;;;;;;3.72;100.00;67182.25;5011939;28;20106;-84
2022/12/06 06:31:42;;;;;;;24.23;13.02;;;;;;;3.72;100.00;67192.22;5007468;28;20068;-84
2022/12/06 06:34:07;;;;;;;25.52;13.88;;;;;;;;;;5002757;28;20453;-84
2022/12/06 06:36:32;;;;;;;25.20;13.50;;;;;;;3.71;100.00;67188.44;5010244;28;20038;-84
2022/12/06 06:38:58;;;;;;;26.00;14.68;;;;;;;3.71;100.00;67183.19;5012630;28;20053;-83
2022/12/06 06:41:23;;;;;;;25.23;12.23;;;;;;;;;;5008976;28;20153;-84
2022/12/06 06:43:48;;;;;;;28.23;13.63;;;;;;;3.71;100.00;67180.53;5009190;28;20050;-84
2022/12/06 06:46:14;;;;;;;27.08;13.02;;;;;;;3.70;100.00;67187.88;5011753;28;20045;-84
2022/12/06 06:48:39;;;;;;;25.00;13.50;;;;;;;3.69;100.00;67181.50;5011141;28;20041;-83
2022/12/06 06:51:06;;;;;;;26.33;14.63;;;;;;;;;;5008187;28;20062;-84
2022/12/06 06:53:31;;;;;;;26.25;14.90;;;;;;;3.70;100.00;67182.06;5013513;28;20460;-84
2022/12/06 06:55:56;;;;;;;27.75;14.85;;;;;;;;;;5006320;28;20041;-84
2022/12/06 06:58:23;;;;;;;26.02;14.10;;;;;;;3.67;100.00;67178.66;5007763;28;20042;-84
2022/12/06 07:00:53;;;;;;;24.67;14.18;;;;;;;3.69;100.00;67180.94;5009870;28;20414;-84
2022/12/06 07:03:19;;;;;;;22.77;12.48;;;;;;;;;;5011321;28;20048;-83
2022/12/06 07:05:49;;;;;;;27.02;15.38;;;;;;;;;;5009713;28;20069;-83
2022/12/06 07:08:15;;;;;;;26.35;15.40;;;;;;;3.68;100.00;67185.63;5008238;28;20695;-83
2022/12/06 07:10:40;;;;;;;26.10;15.23;;;;;;;;;;5009246;28;20118;-83
2022/12/06 07:13:05;;;;;;;28.60;14.13;;;;;;;;;;5011524;28;20034;-84
2022/12/06 07:15:31;;;;;;;27.08;13.95;;;;;;;3.68;100.00;67180.34;5010494;28;20072;-83
2022/12/06 07:17:56;;;;;;;27.58;14.55;;;;;;;;;;5005134;28;20042;-83
2022/12/06 07:20:21;;;;;;;28.42;13.98;;;;;;;3.67;100.00;67179.22;5009221;28;20515;-84
2022/12/06 07:22:47;;;;;;;25.50;15.02;;;;;;;3.67;100.00;67179.22;5010786;28;20460;-84
2022/12/06 07:25:12;;;;;;;24.88;13.45;;;;;;;;;;5011758;28;20182;-83
2022/12/06 07:27:38;;;;;;;31.00;16.00;;;;;;;3.66;100.00;67182.81;5005640;28;20595;-83
2022/12/06 07:30:05;;;;;;;26.52;14.73;;;;;;;3.65;100.00;67174.34;5011867;28;20041;-83
2022/12/06 07:32:35;;;;;;;25.45;15.43;;;;;;;;;;5012294;28;20033;-83
2022/12/06 07:35:00;;;;;;;24.95;14.60;;;;;;;;;;5004867;28;20513;-83
2022/12/06 07:37:26;;;;;;;31.33;16.15;;;;;;;3.64;100.00;67173.22;5011303;28;20129;-83
2022/12/06 07:39:51;;;;;;;26.70;13.98;;;;;;;3.65;100.00;67182.22;5010293;28;20098;-83
2022/12/06 07:45:00;;;;;;;27.77;15.38;;;;;;;3.59;100.00;67181.28;5004777;28;20104;-83
2022/12/06 07:47:26;;;;;;;29.52;13.43;;;;;;;;;;5008148;28;20053;-83
2022/12/06 07:49:54;;;;;;;22.98;14.45;;;;;;;3.60;100.00;67171.34;5010639;28;20054;-83
2022/12/06 07:52:20;;;;;;;25.17;12.48;;;;;;;3.59;100.00;67175.47;5012588;28;20049;-83
2022/12/06 07:54:46;;;;;;;24.95;13.07;;;;;;;;;;5011400;28;20088;-83
2022/12/06 07:57:11;;;;;;;24.75;14.95;;;;;;;;;;5011919;28;20391;-83
2022/12/06 07:59:36;;;;;;;23.85;14.55;;;;;;;3.58;100.00;67174.91;5004412;28;20125;-84
2022/12/06 08:02:02;;;;;;;19.73;11.73;;;;;;;3.58;100.00;67169.09;5012428;28;20046;-83
2022/12/06 08:04:27;;;;;;;23.88;14.80;;;;;;;3.58;100.00;67174.34;5012288;28;20052;-83
2022/12/06 08:06:53;;;;;;;25.70;14.23;;;;;;;3.56;100.00;67172.66;5011704;28;20100;-83
2022/12/06 08:09:19;;;;;;;28.77;14.25;;;;;;;3.59;100.00;67176.03;5012730;28;20485;-83
2022/12/06 08:11:44;;;;;;;21.27;13.73;;;;;;;3.58;100.00;67169.66;5016954;28;20040;-84
2022/12/06 08:14:10;;;;;;;21.38;12.95;;;;;;;3.59;100.00;67175.47;5018220;28;20104;-83
2022/12/06 08:16:35;;;;;;;24.88;14.85;;;;;;;3.59;100.00;67176.03;5010531;28;20043;-83
2022/12/06 08:19:01;;;;;;;22.50;12.88;;;;;;;;;;5010356;28;20046;-83
2022/12/06 08:21:26;;;;;;;22.83;12.25;;;;;;;;;;5013523;28;20042;-83
2022/12/06 08:23:52;;;;;;;22.15;11.85;;;;;;;;;;5013337;28;20159;-83
2022/12/06 08:26:18;;;;;;;22.10;12.35;;;;;;;;;;5005496;28;20067;-83
2022/12/06 08:28:43;;;;;;;21.70;14.75;;;;;;;3.64;100.00;67175.28;5014033;28;20145;-83
2022/12/06 08:31:18;;;;;;;21.63;12.63;;;;;;;3.60;100.00;67177.16;5012730;28;20037;-83
2022/12/06 08:33:44;;;;;;;19.17;12.00;;;;;;;3.56;100.00;67166.81;5013909;28;20038;-83
2022/12/06 08:36:10;;;;;;;21.60;12.15;;;;;;;;;;5005614;28;20050;-83
2022/12/06 08:38:36;;;;;;;20.85;12.38;;;;;;;;;;5012541;28;20045;-83
2022/12/06 08:41:02;;;;;;;19.02;11.63;;;;;;;3.59;100.00;67170.22;5012127;28;20037;-83
2022/12/06 08:43:27;;;;;;;21.17;12.40;;;;;;;;;;5013661;28;20038;-83
2022/12/06 08:45:53;;;;;;;19.15;10.38;;;;;;;3.61;100.00;67177.72;5009867;28;20462;-83
2022/12/06 08:48:18;;;;;;;18.38;11.93;;;;;;;3.62;100.00;67178.84;5012190;28;20132;-83
2022/12/06 08:50:43;;;;;;;21.95;9.88;;;;;;;3.63;100.00;67180.00;5009546;28;20045;-83
2022/12/06 08:53:09;;;;;;;20.40;11.20;;;;;;;3.64;100.00;67181.13;5011827;28;20042;-83
2022/12/06 08:55:34;;;;;;;20.55;10.00;;;;;;;3.64;100.00;67183.75;5009585;28;20422;-83
2022/12/06 08:58:00;;;;;;;18.73;10.93;;;;;;;3.66;100.00;67177.56;5011911;28;20034;-83
2022/12/06 09:00:25;;;;;;;19.10;11.13;;;;;;;;;;5012484;28;20073;-83
2022/12/06 09:02:50;;;;;;;14.73;9.88;;;;;;;;;;5014266;28;20105;-83
2022/12/06 09:05:16;;;;;;;19.30;11.48;;;;;;;3.70;100.00;67182.06;5006037;28;20042;-83
2022/12/06 09:07:41;;;;;;;17.30;10.68;;;;;;;3.70;100.00;67187.88;5008430;28;20058;-83
2022/12/06 09:10:07;;;;;;;18.88;10.80;;;;;;;3.72;100.00;67184.31;5010176;28;20088;-83
2022/12/06 09:12:32;;;;;;;17.80;11.30;;;;;;;3.72;100.00;67184.88;5004798;28;20042;-84
2022/12/06 09:14:58;;;;;;;17.90;9.32;;;;;;;3.71;100.00;67183.75;5011426;28;20413;-83
2022/12/06 09:17:23;;;;;;;15.40;8.55;;;;;;;;;;5008773;28;20096;-83
2022/12/06 09:19:48;;;;;;;16.35;10.80;;;;;;;3.77;100.00;67189.94;5012125;28;20592;-83
2022/12/06 09:22:13;;;;;;;19.48;10.50;;;;;;;3.78;100.00;67196.91;5010439;28;20568;-84
2022/12/06 09:24:39;;;;;;;16.35;10.00;;;;;;;;;;5013221;28;20112;-83
2022/12/06 09:27:04;;;;;;;20.30;12.40;;;;;;;3.83;100.00;67202.56;5012027;28;20042;-83
2022/12/06 09:29:29;;;;;;;23.30;14.38;;;;;;;3.79;100.00;67198.03;4996785;28;20069;-83
2022/12/06 09:31:55;;;;;;;15.25;9.88;;;;;;;;;;4993292;28;20042;-83
2022/12/06 09:34:20;;;;;;;19.08;11.27;;;;;;;;;;4994092;28;20134;-83
2022/12/06 09:36:48;;;;;;;17.25;10.43;;;;;;;;;;5013735;28;20042;-83
2022/12/06 09:39:24;;;;;;;17.25;11.50;;;;;;;;;;5009247;28;20034;-83
2022/12/06 09:42:08;;;;;;;14.68;9.35;;;;;;;3.77;100.00;67187.88;5009229;28;20121;-83
2022/12/06 09:44:52;;;;;;;15.57;9.90;;;;;;;3.72;100.00;67190.16;5005747;28;20050;-84
2022/12/06 09:47:34;;;;;;;17.25;9.02;;;;;;;3.68;100.00;67180.34;4992039;28;20097;-83
2022/12/06 09:50:35;;;;;;;12.55;8.27;;;;;;;3.67;100.00;67179.22;5010557;28;20042;-83
2022/12/06 09:53:19;;;;;;;12.35;7.50;;;;;;;;;;5010802;28;20056;-83
2022/12/06 09:55:59;;;;;;;12.30;7.50;;;;;;;3.63;100.00;67174.72;5010977;28;20563;-83
2022/12/06 09:58:31;;;;;;;12.50;8.65;;;;;;;;;;5011263;28;20360;-83
2022/12/06 10:01:12;;;;;;;15.48;10.07;;;;;;;;;;5012291;28;20121;-83
2022/12/06 10:04:03;;;;;;;18.83;8.55;;;;;;;3.54;100.00;67164.56;5025697;28;20046;-83
2022/12/06 10:06:46;;;;;;;12.57;8.60;;;;;;;3.54;100.00;67165.16;5013633;28;20050;-83
2022/12/06 10:09:32;;;;;;;19.13;12.25;;;;;;;3.52;100.00;67162.88;5014009;28;20057;-83
2022/12/06 10:12:51;;;;;;;19.63;11.38;;;;;;;3.54;100.00;67164.56;5002532;28;20057;-83
2022/12/06 10:15:29;;;;;;;19.90;12.18;;;;;;;3.59;100.00;67170.22;4944841;29;20062;-83
2022/12/06 10:18:31;;;;;;;20.00;11.60;;;;;;;3.64;100.00;67181.13;5002652;28;20042;-83
2022/12/06 10:21:24;;;;;;;17.08;11.65;;;;;;;3.66;100.00;67178.13;5023711;28;20112;-83
2022/12/06 10:24:05;;;;;;;18.48;11.27;;;;;;;3.66;100.00;67186.00;5008201;28;20069;-83
2022/12/06 10:26:31;;;;;;;18.02;11.85;;;;;;;;;;4977401;28;20041;-83
2022/12/06 10:29:17;;;;;;;20.23;11.57;;;;;;;3.71;100.00;67183.75;5014666;28;20049;-83
2022/12/06 10:31:57;;;;;;;18.73;12.02;;;;;;;3.92;100.00;67214.22;5027470;28;20049;-83
2022/12/06 10:34:28;;;;;;;15.82;10.63;;;;;;;;;;5005838;28;20229;-83
2022/12/06 10:37:07;;;;;;;18.77;10.10;;;;;;;3.97;100.00;67211.94;5011340;28;20076;-83
2022/12/06 10:39:42;;;;;;;16.05;10.10;;;;;;;;;;5026776;28;20100;-83
2022/12/06 10:42:14;;;;;;;15.02;10.68;;;;;;;4.01;100.00;67213.84;5002134;28;20088;-83
2022/12/06 10:44:44;;;;;;;11.75;7.30;;;;;;;4.14;100.00;67231.13;4995422;28;20122;-83
2022/12/06 10:47:12;;;;;;;13.20;9.30;;;;;;;;;;5002934;28;20041;-83
2022/12/06 10:50:01;;;;;;;13.25;8.98;;;;;;;4.35;100.00;67253.72;5014807;28;20052;-84
2022/12/06 10:52:38;;;;;;;12.18;7.75;;;;;;;;;;5027782;28;20049;-83
2022/12/06 10:55:10;;;;;;;14.18;8.55;;;;;;;4.36;100.00;67254.84;5013790;28;20042;-83
2022/12/06 10:58:14;;;;;;;11.70;8.00;;;;;;;4.39;100.00;67263.50;5010468;28;20056;-83
2022/12/06 11:00:51;;;;;;;14.32;10.05;;;;;;;;;;4959731;28;20620;-83
2022/12/06 11:03:23;;;;;;;11.57;7.43;;;;;;;;;;5013278;28;20046;-83
2022/12/06 11:05:53;;;;;;;11.98;7.30;;;;;;;4.64;100.00;67291.16;5008774;28;20134;-83
2022/12/06 11:08:24;;;;;;;12.80;7.47;;;;;;;;;;5008691;28;20053;-83
2022/12/06 11:10:50;;;;;;;9.75;7.10;;;;;;;;;;5012434;28;20065;-83
2022/12/06 11:13:16;;;;;;;10.35;6.18;;;;;;;4.69;100.00;67292.09;5012597;28;20048;-83
2022/12/06 11:15:46;;;;;;;10.07;6.97;;;;;;;;;;5013589;28;20037;-83
2022/12/06 11:18:15;;;;;;;9.77;6.38;;;;;;;4.85;100.00;67314.31;4996061;28;20046;-83
2022/12/06 11:20:46;;;;;;;9.80;6.80;;;;;;;;;;5008108;28;20042;-83
2022/12/06 11:23:16;;;;;;;13.20;6.18;;;;;;;;;;5007170;28;20297;-83
2022/12/06 11:26:00;;;;;;;9.35;5.75;;;;;;;;;;5010023;28;20478;-83
2022/12/06 11:28:37;;;;;;;8.40;5.65;;;;;;;;;;5010140;28;20553;-83
2022/12/06 11:31:14;;;;;;;7.28;4.78;;;;;;;4.73;100.00;67293.97;5014757;28;20518;-83
2022/12/06 11:33:40;;;;;;;8.77;5.60;;;;;;;4.75;100.00;67296.22;5006360;28;20061;-83
2022/12/06 11:36:06;;;;;;;8.27;4.70;;;;;;;4.75;100.00;67298.31;5010688;28;20053;-83
2022/12/06 11:38:33;;;;;;;10.50;4.93;;;;;;;4.78;100.00;67301.69;5009583;28;20049;-83
2022/12/06 11:41:00;;;;;;;7.35;5.05;;;;;;;4.79;100.00;67302.81;5007285;28;20038;-83
2022/12/06 11:43:29;;;;;;;9.43;4.93;;;;;;;;;;4993553;28;20066;-83
2022/12/06 11:45:55;;;;;;;9.07;4.53;;;;;;;;;;5009794;28;20125;-83
2022/12/06 11:48:24;;;;;;;7.75;4.40;;;;;;;5.02;100.00;67333.50;5013500;28;20152;-83
2022/12/06 11:50:50;;;;;;;6.80;4.40;;;;;;;;;;5013408;28;20048;-83
2022/12/06 11:53:28;;;;;;;5.85;4.43;;;;;;;5.21;100.00;67349.13;5014686;28;20041;-83
2022/12/06 11:55:59;;;;;;;7.80;4.17;;;;;;;5.12;100.00;67346.84;5009594;28;20045;-83
2022/12/06 11:58:25;;;;;;;6.95;4.15;;;;;;;5.03;100.00;67329.34;5015326;28;20117;-83
2022/12/06 12:01:03;;;;;;;6.47;3.95;;;;;;;5.01;100.00;67327.09;5012917;28;20314;-83
2022/12/06 12:03:33;;;;;;;5.97;3.00;;;;;;;;;;5013984;28;20129;-83
2022/12/06 12:06:16;;;;;;;;;;;;;;;5.22;100.00;67347.06;5013956;28;20077;-83
2022/12/06 12:09:00;;;;;;;6.22;4.15;;;;;;;5.39;100.00;67368.88;5011983;28;20020;-83
2022/12/06 12:11:32;;;;;;;6.70;3.42;;;;;;;5.56;100.00;67388.09;5010532;28;20053;-83
2022/12/06 12:14:04;;;;;;;9.70;4.63;;;;;;;5.63;100.00;67393.34;5013486;28;20038;-83
2022/12/06 12:16:35;;;;;;;6.47;3.55;;;;;;;5.80;100.00;67414.09;5026586;28;20034;-83
2022/12/06 12:19:02;;;;;;;5.45;4.05;;;;;;;;;;5008589;28;20129;-83
2022/12/06 12:21:35;;;;;;;6.78;3.00;;;;;;;;;;5002754;28;20050;-83
2022/12/06 12:24:00;;;;;;;5.53;3.22;;;;;;;;;;5004032;28;20096;-83
2022/12/06 12:26:39;;;;;;;6.70;3.58;;;;;;;5.84;100.00;67418.59;5005707;28;20045;-83
2022/12/06 12:29:12;;;;;;;7.55;4.30;;;;;;;5.82;100.00;67416.34;4993477;28;20398;-83
2022/12/06 12:32:04;;;;;;;6.25;4.00;;;;;;;;;;4998843;28;20371;-83
2022/12/06 12:34:29;;;;;;;9.23;4.80;;;;;;;5.66;100.00;67399.38;4990393;28;20053;-83
2022/12/06 12:37:00;;;;;;;12.38;5.63;;;;;;;5.72;100.00;67405.03;5008414;28;20034;-82
2022/12/06 12:39:43;;;;;;;7.88;4.53;;;;;;;5.73;100.00;67406.19;5011452;28;20092;-83
2022/12/06 12:42:33;;;;;;;6.10;3.85;;;;;;;5.68;100.00;67405.81;5011347;28;20049;-83
2022/12/06 12:44:59;;;;;;;8.25;4.97;;;;;;;;;;5006119;28;20397;-83
2022/12/06 12:47:25;;;;;;;7.28;3.40;;;;;;;5.55;100.00;67386.41;5010966;28;20150;-82
2022/12/06 12:50:12;;;;;;;6.03;4.10;;;;;;;5.55;100.00;67386.97;5011615;28;20193;-83
2022/12/06 12:52:39;;;;;;;9.60;5.60;;;;;;;;;;5008219;28;20053;-82